Time;durP1;ratioP1;P1;durP2;ratioP2;P2;SDS_P1;SDS_P2;PMS_P1;PMS_P2;Temp;Humidity;BMP_temperature;BMP_pressure;BME280_temperature;BME280_humidity;BME280_pressure;Samples;Min_cycle;Max_cycle;Signal;HPM_P1;HPM_P2
2024/01/29 00:00:43;;;;;;;15.27;4.35;;;;;;;7.06;57.68;102793.00;4951090;28;101109;-68
2024/01/29 00:03:09;;;;;;;12.55;4.13;;;;;;;7.00;57.82;102794.69;4945546;28;97463;-69
2024/01/29 00:05:36;;;;;;;15.50;4.75;;;;;;;6.91;58.61;102789.31;4958335;28;97149;-68
2024/01/29 00:08:04;;;;;;;12.73;4.15;;;;;;;7.18;57.37;102784.34;4950206;28;98158;-69
2024/01/29 00:10:30;;;;;;;15.95;4.25;;;;;;;7.12;57.47;102789.56;4948253;28;99233;-69
2024/01/29 00:12:57;;;;;;;16.95;5.10;;;;;;;6.91;58.63;102782.31;4951280;28;97930;-69
2024/01/29 00:15:23;;;;;;;11.15;4.10;;;;;;;6.93;57.63;102787.59;4950033;28;96836;-70
2024/01/29 00:17:49;;;;;;;9.27;3.42;;;;;;;6.89;58.28;102785.78;4951968;28;98905;-69
2024/01/29 00:20:16;;;;;;;14.55;4.25;;;;;;;6.89;57.98;102785.78;4950939;28;98815;-70
2024/01/29 00:22:42;;;;;;;12.20;4.15;;;;;;;6.79;58.58;102788.31;4955698;28;97236;-69
2024/01/29 00:25:10;;;;;;;16.38;4.90;;;;;;;7.02;57.89;102792.97;4947519;28;97493;-69
2024/01/29 00:27:37;;;;;;;11.20;3.72;;;;;;;6.95;57.96;102793.75;4945527;28;99019;-70
2024/01/29 00:30:03;;;;;;;14.60;4.50;;;;;;;6.97;57.83;102790.25;4944957;28;98782;-70
2024/01/29 00:32:30;;;;;;;13.55;4.68;;;;;;;6.89;58.08;102780.53;4949568;28;98083;-70
2024/01/29 00:34:56;;;;;;;12.05;4.30;;;;;;;6.80;58.26;102783.94;4947216;28;96930;-71
2024/01/29 00:37:23;;;;;;;23.35;7.00;;;;;;;6.56;58.84;102773.13;4949042;28;99050;-69
2024/01/29 00:39:49;;;;;;;12.60;4.35;;;;;;;6.40;59.80;102772.91;4949402;28;98658;-70
2024/01/29 00:42:17;;;;;;;9.90;3.25;;;;;;;6.49;59.78;102768.63;4947897;28;97506;-69
2024/01/29 00:44:44;;;;;;;9.57;3.97;;;;;;;6.70;58.94;102768.91;4949568;28;97113;-69
2024/01/29 00:47:11;;;;;;;12.98;4.18;;;;;;;6.71;58.80;102765.41;4947132;28;99368;-70
2024/01/29 00:49:38;;;;;;;14.45;4.07;;;;;;;6.74;58.48;102766.34;4950455;28;97808;-70
2024/01/29 00:52:06;;;;;;;14.20;4.10;;;;;;;6.69;58.85;102761.91;4951018;28;96847;-70
2024/01/29 00:54:32;;;;;;;13.57;4.80;;;;;;;6.60;58.77;102765.28;4952915;28;97007;-70
2024/01/29 00:56:59;;;;;;;11.82;4.80;;;;;;;6.57;59.30;102766.97;4951164;28;99251;-70
2024/01/29 00:59:27;;;;;;;13.20;4.40;;;;;;;6.52;59.04;102764.28;4955061;28;99343;-70
2024/01/29 01:01:53;;;;;;;11.40;4.20;;;;;;;6.52;59.14;102766.94;4955509;28;100733;-70
2024/01/29 01:04:20;;;;;;;17.05;4.45;;;;;;;6.61;58.72;102771.44;4955627;28;97543;-70
2024/01/29 01:06:46;;;;;;;12.30;4.15;;;;;;;6.72;58.42;102765.44;4955265;28;100761;-69
2024/01/29 01:09:13;;;;;;;12.05;4.38;;;;;;;6.74;58.01;102771.59;4954704;28;98807;-69
2024/01/29 01:11:40;;;;;;;10.65;3.88;;;;;;;6.79;58.02;102767.28;4949203;28;97280;-69
2024/01/29 01:14:06;;;;;;;13.75;4.93;;;;;;;6.68;58.50;102763.66;4954314;28;97659;-70
2024/01/29 01:16:34;;;;;;;13.65;4.78;;;;;;;6.67;58.09;102759.25;4949746;28;102054;-70
2024/01/29 01:19:00;;;;;;;11.50;3.92;;;;;;;6.52;58.23;102766.03;4951228;28;98862;-69
2024/01/29 01:21:27;;;;;;;9.77;4.68;;;;;;;6.41;58.92;102758.03;4949778;28;97171;-69
2024/01/29 01:23:53;;;;;;;12.25;4.97;;;;;;;6.38;59.05;102761.47;4951622;28;97535;-69
2024/01/29 01:26:19;;;;;;;11.63;4.72;;;;;;;6.47;59.19;102762.47;4949346;28;101066;-69
2024/01/29 01:28:46;;;;;;;10.93;4.22;;;;;;;6.37;59.57;102769.34;4951126;28;101923;-69
2024/01/29 01:31:12;;;;;;;11.45;4.68;;;;;;;6.34;59.49;102761.44;4947244;28;97454;-69
2024/01/29 01:33:40;;;;;;;11.95;4.38;;;;;;;6.31;59.42;102764.00;4950216;28;97202;-69
2024/01/29 01:36:07;;;;;;;11.00;4.05;;;;;;;6.17;59.63;102776.06;4946409;28;102099;-69
2024/01/29 01:38:33;;;;;;;12.68;4.47;;;;;;;6.32;59.93;102766.66;4949527;28;99261;-69
2024/01/29 01:40:59;;;;;;;16.90;5.00;;;;;;;6.23;60.05;102763.91;4948699;28;97223;-70
2024/01/29 01:43:26;;;;;;;11.05;4.13;;;;;;;6.28;59.72;102763.97;4952610;28;97964;-70
2024/01/29 01:46:13;;;;;;;12.30;4.82;;;;;;;6.27;59.74;102763.09;4944636;28;99709;-69
2024/01/29 01:48:41;;;;;;;10.57;4.50;;;;;;;6.33;60.06;102762.28;4952960;28;99008;-70
2024/01/29 01:51:07;;;;;;;16.08;4.95;;;;;;;6.12;60.21;102764.59;4951263;28;97266;-69
2024/01/29 01:53:36;;;;;;;12.70;5.07;;;;;;;6.13;60.24;102758.50;4950441;28;98661;-69
2024/01/29 01:56:05;;;;;;;12.55;4.82;;;;;;;6.29;59.76;102752.63;4951630;28;99013;-69
2024/01/29 01:58:31;;;;;;;14.40;5.15;;;;;;;6.20;59.93;102748.09;4953360;28;102835;-69
2024/01/29 02:00:58;;;;;;;10.60;4.57;;;;;;;6.14;60.34;102750.66;4952482;28;97055;-69
2024/01/29 02:03:25;;;;;;;10.35;4.53;;;;;;;6.16;60.00;102753.31;4949278;28;97728;-69
2024/01/29 02:05:53;;;;;;;11.55;4.00;;;;;;;6.11;60.05;102753.22;4947607;28;98957;-69
2024/01/29 02:08:19;;;;;;;13.27;4.20;;;;;;;6.27;59.77;102741.19;4948235;28;99112;-68
2024/01/29 02:10:46;;;;;;;15.38;4.60;;;;;;;6.28;59.57;102748.22;4952750;28;96932;-70
2024/01/29 02:13:13;;;;;;;12.57;4.45;;;;;;;6.30;59.99;102741.25;4948406;28;99277;-69
2024/01/29 02:15:39;;;;;;;13.68;4.57;;;;;;;6.33;59.45;102730.78;4950402;28;97600;-68
2024/01/29 02:18:06;;;;;;;17.48;4.80;;;;;;;6.17;59.94;102728.81;4948991;28;99844;-68
2024/01/29 02:20:32;;;;;;;13.68;4.68;;;;;;;6.18;60.04;102726.19;4950339;28;97370;-68
2024/01/29 02:23:00;;;;;;;11.65;4.60;;;;;;;6.15;60.63;102717.41;4948381;28;98095;-68
2024/01/29 02:25:26;;;;;;;14.38;4.82;;;;;;;6.36;59.65;102717.72;4948198;28;98134;-68
2024/01/29 02:27:53;;;;;;;19.83;6.45;;;;;;;6.10;60.21;102722.59;4950233;28;101416;-68
2024/01/29 02:30:20;;;;;;;14.98;4.78;;;;;;;6.05;60.51;102712.88;4945162;28;96988;-78
2024/01/29 02:32:46;;;;;;;12.20;4.53;;;;;;;5.96;61.10;102711.91;4949720;28;98018;-76
2024/01/29 02:35:12;;;;;;;15.25;4.75;;;;;;;6.21;60.03;102705.25;4950618;28;101535;-77
2024/01/29 02:37:39;;;;;;;15.15;5.32;;;;;;;6.08;60.49;102711.19;4948734;28;98736;-76
2024/01/29 02:40:08;;;;;;;15.52;5.15;;;;;;;6.09;60.73;102710.34;4948166;28;96792;-76
2024/01/29 02:42:35;;;;;;;15.60;4.70;;;;;;;6.23;59.92;102715.78;4951587;28;98808;-76
2024/01/29 02:45:03;;;;;;;13.30;5.00;;;;;;;6.19;60.37;102714.84;4951024;28;97942;-77
2024/01/29 02:47:29;;;;;;;10.88;4.50;;;;;;;6.24;60.00;102714.88;4950094;28;103315;-77
2024/01/29 02:49:56;;;;;;;12.68;4.38;;;;;;;6.34;59.93;102716.78;4951588;28;97559;-77
2024/01/29 02:52:22;;;;;;;17.23;4.88;;;;;;;6.41;59.68;102702.88;4949506;28;97769;-77
2024/01/29 02:54:48;;;;;;;12.55;4.65;;;;;;;6.19;60.09;102712.22;4949336;28;98855;-77
2024/01/29 02:57:16;;;;;;;14.30;4.78;;;;;;;6.38;59.71;102700.19;4954000;28;100827;-76
2024/01/29 02:59:42;;;;;;;13.50;4.97;;;;;;;6.35;59.60;102698.44;4948334;28;97074;-75
2024/01/29 03:02:08;;;;;;;12.93;4.32;;;;;;;6.47;59.30;102699.44;4947180;28;97933;-75
2024/01/29 03:04:35;;;;;;;16.30;5.43;;;;;;;6.36;59.43;102696.69;4947876;28;99131;-75
2024/01/29 03:07:01;;;;;;;15.68;5.18;;;;;;;6.39;59.33;102705.47;4950144;28;97588;-75
2024/01/29 03:09:27;;;;;;;13.43;4.95;;;;;;;6.31;59.86;102694.00;4947499;28;97599;-76
2024/01/29 03:11:54;;;;;;;15.80;5.40;;;;;;;6.23;60.12;102694.78;4953114;28;97011;-77
2024/01/29 03:14:21;;;;;;;14.10;5.00;;;;;;;6.22;60.10;102693.00;4951270;28;96833;-76
2024/01/29 03:16:51;;;;;;;22.42;6.35;;;;;;;6.35;59.69;102697.56;4952977;28;98825;-76
2024/01/29 03:19:17;;;;;;;14.90;5.10;;;;;;;6.25;60.44;102696.53;4947740;28;96792;-77
2024/01/29 03:21:43;;;;;;;11.88;4.80;;;;;;;6.31;60.26;102695.72;4948265;28;96803;-77
2024/01/29 03:24:10;;;;;;;17.00;5.25;;;;;;;6.13;60.35;102703.38;4951140;28;102977;-75
2024/01/29 03:26:37;;;;;;;14.52;5.63;;;;;;;6.09;60.73;102693.72;4951785;28;99362;-75
2024/01/29 03:29:03;;;;;;;15.38;5.30;;;;;;;6.29;60.37;102689.59;4947285;28;97310;-72
2024/01/29 03:31:31;;;;;;;12.93;5.00;;;;;;;6.05;61.05;102689.25;4957840;28;97012;-73
2024/01/29 03:33:57;;;;;;;11.90;4.85;;;;;;;6.16;61.03;102692.94;4946963;28;96859;-73
2024/01/29 03:36:23;;;;;;;13.73;5.00;;;;;;;6.12;61.01;102692.00;4952128;28;98990;-72
2024/01/29 03:38:50;;;;;;;12.73;4.72;;;;;;;6.10;61.35;102690.22;4952478;28;97283;-73
2024/01/29 03:41:16;;;;;;;18.02;5.28;;;;;;;6.22;60.96;102690.38;4956338;28;97896;-72
2024/01/29 03:43:43;;;;;;;15.75;5.20;;;;;;;6.21;60.99;102692.13;4952928;28;99543;-72
2024/01/29 03:46:09;;;;;;;20.20;5.70;;;;;;;6.27;60.69;102683.44;4952450;28;98884;-72
2024/01/29 03:48:37;;;;;;;13.82;5.40;;;;;;;6.25;60.71;102680.78;4951580;28;97327;-72
2024/01/29 03:51:03;;;;;;;20.63;6.35;;;;;;;6.03;61.21;102688.38;4949264;28;97125;-72
2024/01/29 03:53:30;;;;;;;13.77;5.80;;;;;;;6.21;60.55;102686.00;4948995;28;98989;-72
2024/01/29 03:55:57;;;;;;;13.65;6.00;;;;;;;6.18;60.91;102691.19;4959638;28;98797;-76
2024/01/29 03:58:23;;;;;;;17.60;6.20;;;;;;;6.27;60.77;102683.44;4944927;28;97675;-75
2024/01/29 04:00:49;;;;;;;14.85;5.22;;;;;;;6.24;60.97;102686.00;4949108;28;96966;-76
2024/01/29 04:03:16;;;;;;;16.45;5.72;;;;;;;6.18;61.07;102685.94;4947300;28;98150;-76
2024/01/29 04:05:45;;;;;;;17.83;7.80;;;;;;;6.14;61.36;102689.38;4950729;28;101578;-77
2024/01/29 04:08:12;;;;;;;16.95;6.70;;;;;;;6.07;61.68;102679.66;4951609;28;97494;-77
2024/01/29 04:10:38;;;;;;;20.90;6.07;;;;;;;6.12;61.74;102678.88;4950332;28;97117;-75
2024/01/29 04:13:04;;;;;;;14.82;5.35;;;;;;;5.96;62.06;102675.16;4949421;28;99226;-77
2024/01/29 04:15:31;;;;;;;22.17;6.32;;;;;;;6.08;62.23;102674.44;4950602;28;98930;-77
2024/01/29 04:17:57;;;;;;;15.32;6.07;;;;;;;6.35;61.20;102674.81;4953963;28;97127;-77
2024/01/29 04:20:24;;;;;;;19.13;6.13;;;;;;;6.46;60.93;102671.41;4958501;28;97023;-77
2024/01/29 04:22:51;;;;;;;16.58;6.40;;;;;;;6.21;61.79;102672.88;4952630;28;99022;-77
2024/01/29 04:25:18;;;;;;;14.95;5.93;;;;;;;6.22;61.54;102665.00;4954853;28;98160;-78
2024/01/29 04:27:46;;;;;;;17.95;5.68;;;;;;;6.27;61.43;102678.19;4956995;28;96751;-77
2024/01/29 04:30:13;;;;;;;13.35;5.80;;;;;;;6.27;61.27;102670.31;4949645;28;97304;-76
2024/01/29 04:32:39;;;;;;;17.63;7.38;;;;;;;6.08;61.94;102670.94;4950672;28;99118;-76
2024/01/29 04:35:06;;;;;;;16.85;5.10;;;;;;;6.00;62.07;102669.09;4957023;28;98337;-76
2024/01/29 04:37:33;;;;;;;18.73;5.72;;;;;;;6.09;62.59;102659.59;4952221;28;97288;-77
2024/01/29 04:40:01;;;;;;;18.92;6.13;;;;;;;6.27;61.76;102649.31;4952616;28;98035;-76
2024/01/29 04:42:27;;;;;;;14.43;5.75;;;;;;;6.03;62.51;102652.50;4951912;28;99296;-77
2024/01/29 04:44:54;;;;;;;17.40;6.00;;;;;;;6.25;61.48;102648.41;4956606;28;99702;-76
2024/01/29 04:47:20;;;;;;;16.83;5.95;;;;;;;6.20;61.66;102645.72;4950932;28;96841;-77
2024/01/29 04:49:46;;;;;;;13.88;5.60;;;;;;;6.23;62.05;102644.91;4950536;28;97120;-77
2024/01/29 04:52:12;;;;;;;13.13;5.45;;;;;;;6.30;61.76;102647.59;4950530;28;98932;-76
2024/01/29 04:54:39;;;;;;;14.25;5.38;;;;;;;6.22;61.84;102644.00;4950671;28;99692;-75
2024/01/29 04:57:07;;;;;;;17.92;6.40;;;;;;;6.11;62.01;102650.84;4951264;28;98609;-76
2024/01/29 04:59:33;;;;;;;21.90;6.10;;;;;;;6.42;61.47;102639.00;4947472;28;97317;-75
2024/01/29 05:01:59;;;;;;;16.75;5.40;;;;;;;6.30;61.36;102644.97;4950239;28;98808;-74
2024/01/29 05:04:26;;;;;;;15.93;5.75;;;;;;;6.08;62.23;102645.56;4949006;28;101705;-75
2024/01/29 05:06:52;;;;;;;16.10;5.97;;;;;;;6.11;62.02;102649.97;4952696;28;97861;-75
2024/01/29 05:09:19;;;;;;;18.65;5.80;;;;;;;6.23;61.92;102648.41;4948572;28;97581;-76
2024/01/29 05:11:45;;;;;;;15.52;5.80;;;;;;;6.03;62.55;102646.38;4950913;28;98735;-76
2024/01/29 05:14:13;;;;;;;20.20;6.15;;;;;;;6.21;62.08;102651.88;4950884;28;99036;-75
2024/01/29 05:16:39;;;;;;;14.30;5.88;;;;;;;6.31;61.92;102651.09;4948981;28;97157;-76
2024/01/29 05:19:06;;;;;;;16.90;6.15;;;;;;;6.23;61.82;102650.16;4954370;28;98297;-75
2024/01/29 05:21:32;;;;;;;13.25;5.90;;;;;;;6.16;62.09;102643.94;4956317;28;98863;-76
2024/01/29 05:23:58;;;;;;;15.98;6.30;;;;;;;6.07;62.94;102642.94;4950142;28;98364;-76
2024/01/29 05:26:26;;;;;;;14.98;6.05;;;;;;;5.94;63.18;102644.50;4952096;28;96918;-76
2024/01/29 05:28:53;;;;;;;19.40;6.60;;;;;;;6.07;62.60;102642.94;4950819;28;97167;-76
2024/01/29 05:31:21;;;;;;;18.90;5.80;;;;;;;6.06;63.04;102642.03;4948246;28;99126;-76
2024/01/29 05:33:47;;;;;;;20.23;6.10;;;;;;;6.10;62.93;102642.97;4958906;28;98965;-77
2024/01/29 05:36:14;;;;;;;17.20;6.53;;;;;;;5.93;63.54;102643.63;4954498;28;97119;-76
2024/01/29 05:38:40;;;;;;;17.65;5.72;;;;;;;6.05;62.91;102647.25;4951605;28;97798;-75
2024/01/29 05:41:06;;;;;;;18.83;6.30;;;;;;;6.12;62.69;102651.72;4953924;28;97797;-76
2024/01/29 05:43:33;;;;;;;20.75;6.32;;;;;;;6.10;62.52;102640.34;4953515;28;99138;-76
2024/01/29 05:45:59;;;;;;;12.57;5.55;;;;;;;6.12;62.46;102639.50;4945889;28;97663;-76
2024/01/29 05:48:27;;;;;;;15.40;5.95;;;;;;;6.15;62.32;102651.78;4957779;28;96916;-77
2024/01/29 05:50:53;;;;;;;23.00;6.13;;;;;;;6.17;62.14;102650.06;4949643;28;99216;-76
2024/01/29 05:53:20;;;;;;;16.40;5.55;;;;;;;5.90;63.07;102648.84;4948438;28;98966;-74
2024/01/29 05:55:46;;;;;;;18.42;5.55;;;;;;;6.02;62.74;102642.00;4945223;28;96921;-75
2024/01/29 05:58:14;;;;;;;17.70;5.50;;;;;;;6.16;62.17;102645.69;4955935;28;97584;-74
2024/01/29 06:00:40;;;;;;;19.80;7.38;;;;;;;6.06;63.21;102649.03;4945024;28;98957;-76
2024/01/29 06:03:07;;;;;;;18.05;6.32;;;;;;;5.91;63.01;102641.81;4948037;28;98788;-76
2024/01/29 06:05:34;;;;;;;13.48;5.53;;;;;;;5.91;63.12;102645.34;4956995;28;97430;-76
2024/01/29 06:08:01;;;;;;;17.95;6.10;;;;;;;5.96;63.03;102635.81;4954034;28;97188;-77
2024/01/29 06:10:27;;;;;;;25.33;6.38;;;;;;;5.98;63.02;102631.44;4953822;28;99049;-76
2024/01/29 06:12:53;;;;;;;14.80;6.07;;;;;;;6.00;62.85;102631.47;4950939;28;98441;-75
2024/01/29 06:15:20;;;;;;;18.55;5.75;;;;;;;6.12;62.63;102631.63;4952012;28;98225;-76
2024/01/29 06:17:46;;;;;;;14.23;5.80;;;;;;;5.97;62.96;102629.66;4951086;28;96794;-76
2024/01/29 06:20:13;;;;;;;15.52;6.28;;;;;;;5.90;63.41;102625.22;4950699;28;98434;-76
2024/01/29 06:22:40;;;;;;;23.50;7.32;;;;;;;5.88;63.10;102620.81;4948816;28;99121;-76
2024/01/29 06:25:07;;;;;;;20.60;6.75;;;;;;;5.74;63.75;102628.47;4956371;28;97393;-76
2024/01/29 06:27:33;;;;;;;17.17;6.50;;;;;;;5.83;63.76;102622.47;4952402;28;97310;-76
2024/01/29 06:30:00;;;;;;;17.63;6.95;;;;;;;5.78;63.92;102627.63;4954606;28;101235;-75
2024/01/29 06:32:27;;;;;;;21.90;6.93;;;;;;;5.89;63.71;102631.34;4951327;28;98037;-76
2024/01/29 06:34:56;;;;;;;22.33;7.43;;;;;;;5.87;63.45;102624.25;4948164;28;97020;-76
2024/01/29 06:37:23;;;;;;;17.42;6.78;;;;;;;5.83;63.58;102631.22;4946508;28;97227;-77
2024/01/29 06:39:51;;;;;;;18.75;7.28;;;;;;;5.81;64.16;102627.69;4952645;28;98951;-76
2024/01/29 06:42:17;;;;;;;25.88;7.78;;;;;;;5.90;63.44;102624.34;4946324;28;97825;-76
2024/01/29 06:44:43;;;;;;;20.63;7.47;;;;;;;5.82;63.66;102628.56;4947987;28;98783;-76
2024/01/29 06:47:10;;;;;;;16.38;7.53;;;;;;;5.76;63.87;102621.50;4946654;28;96947;-78
2024/01/29 06:49:36;;;;;;;19.80;7.15;;;;;;;5.73;64.08;102636.28;4948691;28;99292;-76
2024/01/29 06:52:03;;;;;;;20.00;6.90;;;;;;;5.71;64.05;102623.16;4945881;28;101990;-77
2024/01/29 06:54:29;;;;;;;20.92;7.07;;;;;;;5.70;63.72;102624.03;4947094;28;97765;-74
2024/01/29 06:56:57;;;;;;;19.17;7.03;;;;;;;5.54;64.60;102624.66;4948078;28;97109;-76
2024/01/29 06:59:25;;;;;;;18.30;7.53;;;;;;;5.77;64.09;102625.88;4946363;28;100185;-75
2024/01/29 07:01:53;;;;;;;18.83;7.45;;;;;;;5.92;63.27;102631.34;4950767;28;99235;-76
2024/01/29 07:04:20;;;;;;;18.27;7.18;;;;;;;6.05;62.72;102631.50;4952433;28;97034;-78
2024/01/29 07:06:46;;;;;;;23.35;7.22;;;;;;;5.94;62.77;102634.91;4948987;28;97314;-77
2024/01/29 07:09:13;;;;;;;17.42;5.95;;;;;;;5.89;62.89;102628.72;4949693;28;97437;-77
2024/01/29 07:11:40;;;;;;;18.27;6.72;;;;;;;6.10;61.79;102632.47;4947207;28;99101;-77
2024/01/29 07:14:07;;;;;;;16.27;6.10;;;;;;;6.13;61.75;102622.88;4944127;28;97678;-75
2024/01/29 07:16:34;;;;;;;16.55;5.32;;;;;;;6.11;60.73;102624.59;4946646;28;101617;-75
2024/01/29 07:19:00;;;;;;;15.98;5.65;;;;;;;6.18;60.48;102622.94;4944809;28;101879;-76
2024/01/29 07:21:26;;;;;;;14.13;5.30;;;;;;;6.15;60.58;102622.91;4948088;28;99634;-75
2024/01/29 07:23:53;;;;;;;20.58;6.97;;;;;;;6.15;60.41;102622.91;4946515;28;97853;-76
2024/01/29 07:26:19;;;;;;;17.05;5.68;;;;;;;6.40;59.30;102622.34;4943694;28;98387;-76
2024/01/29 07:28:45;;;;;;;22.40;5.50;;;;;;;6.34;59.71;102617.03;4944176;28;100409;-78
2024/01/29 07:31:13;;;;;;;13.52;4.78;;;;;;;6.37;59.32;102611.78;4951991;28;99083;-77
2024/01/29 07:33:40;;;;;;;15.02;5.43;;;;;;;6.51;58.81;102610.19;4951566;28;97601;-77
2024/01/29 07:36:06;;;;;;;14.10;5.40;;;;;;;6.50;58.12;102605.81;4946656;28;98476;-78
2024/01/29 07:38:33;;;;;;;10.65;4.25;;;;;;;6.59;58.02;102618.16;4951060;28;98808;-77
2024/01/29 07:41:00;;;;;;;15.63;5.00;;;;;;;6.66;57.82;102614.75;4948703;28;99385;-77
2024/01/29 07:43:27;;;;;;;14.45;5.13;;;;;;;6.73;57.00;102608.69;4949919;28;96836;-78
2024/01/29 07:45:53;;;;;;;9.80;3.70;;;;;;;6.79;56.64;102607.00;4948365;28;97494;-78
2024/01/29 07:48:21;;;;;;;12.27;5.05;;;;;;;6.88;56.73;102610.59;4953924;28;99480;-78
2024/01/29 07:50:47;;;;;;;9.95;4.20;;;;;;;6.83;56.20;102612.28;4945711;28;98795;-77
2024/01/29 07:53:14;;;;;;;13.50;4.60;;;;;;;6.97;55.54;102616.78;4948602;28;96919;-76
2024/01/29 07:55:40;;;;;;;14.30;4.95;;;;;;;7.20;54.82;102617.00;4949655;28;96860;-76
2024/01/29 07:58:08;;;;;;;13.13;4.57;;;;;;;7.36;54.09;102618.84;4948509;28;98955;-75
2024/01/29 08:00:34;;;;;;;14.30;4.40;;;;;;;7.44;53.87;102622.44;4946168;28;98749;-76
2024/01/29 08:03:01;;;;;;;17.55;4.85;;;;;;;7.39;53.65;102624.16;4946569;28;99963;-78
2024/01/29 08:05:28;;;;;;;14.68;5.10;;;;;;;7.51;53.28;102626.88;4947904;28;97335;-77
2024/01/29 08:07:56;;;;;;;16.10;5.20;;;;;;;7.40;53.57;102622.41;4942684;28;98895;-77
2024/01/29 08:10:22;;;;;;;12.73;4.30;;;;;;;7.43;53.46;102618.03;4946249;28;98985;-78
2024/01/29 08:12:48;;;;;;;11.85;5.13;;;;;;;7.55;53.24;102618.09;4943855;28;97146;-76
2024/01/29 08:15:15;;;;;;;11.27;5.10;;;;;;;7.57;53.32;102608.50;4943564;28;97528;-76
2024/01/29 08:17:42;;;;;;;12.45;4.43;;;;;;;7.49;53.18;102609.28;4947333;28;98856;-76
2024/01/29 08:20:09;;;;;;;15.95;5.28;;;;;;;7.64;52.94;102612.03;4938545;28;99154;-76
2024/01/29 08:22:37;;;;;;;14.07;4.78;;;;;;;7.58;52.92;102615.50;4945564;28;97452;-75
2024/01/29 08:25:03;;;;;;;10.35;4.95;;;;;;;7.67;52.73;102612.06;4944342;28;98234;-75
2024/01/29 08:27:31;;;;;;;11.65;4.53;;;;;;;7.68;52.54;102612.94;4943430;28;98930;-75
2024/01/29 08:29:58;;;;;;;12.27;4.80;;;;;;;7.89;51.80;102599.88;4944168;28;98906;-75
2024/01/29 08:32:24;;;;;;;18.02;5.35;;;;;;;7.97;51.42;102603.44;4945065;28;98806;-76
2024/01/29 08:34:51;;;;;;;12.77;4.80;;;;;;;7.98;51.42;102602.56;4947126;28;97255;-76
2024/01/29 08:37:17;;;;;;;17.08;5.93;;;;;;;8.02;51.55;102596.44;4947634;28;98828;-76
2024/01/29 08:39:45;;;;;;;14.52;5.32;;;;;;;8.07;50.83;102601.75;4945873;28;99201;-75
2024/01/29 08:42:11;;;;;;;16.48;4.82;;;;;;;8.38;50.08;102591.34;4949311;28;97036;-75
2024/01/29 08:44:37;;;;;;;17.90;4.78;;;;;;;8.61;49.79;102596.66;4947837;28;97219;-76
2024/01/29 08:47:04;;;;;;;15.88;4.85;;;;;;;8.60;49.08;102588.78;4945808;28;100388;-76
2024/01/29 08:49:30;;;;;;;11.05;4.80;;;;;;;8.85;48.49;102589.69;4937777;28;99238;-75
2024/01/29 08:51:57;;;;;;;13.77;4.55;;;;;;;8.78;48.58;102588.78;4947398;28;97500;-75
2024/01/29 08:54:23;;;;;;;11.20;4.57;;;;;;;8.97;47.72;102603.75;4944221;28;97656;-75
2024/01/29 08:56:51;;;;;;;11.38;5.00;;;;;;;9.03;47.49;102592.31;4944103;28;101530;-75
2024/01/29 08:59:19;;;;;;;15.18;4.65;;;;;;;9.07;46.73;102589.66;4948351;28;98811;-76
2024/01/29 09:01:45;;;;;;;15.32;5.05;;;;;;;9.04;47.59;102584.41;4948185;28;97030;-75
2024/01/29 09:04:12;;;;;;;23.88;5.53;;;;;;;9.02;47.73;102594.06;4933781;28;98190;-75
2024/01/29 09:06:38;;;;;;;13.57;4.72;;;;;;;8.97;47.40;102584.41;4945375;28;99409;-76
2024/01/29 09:09:04;;;;;;;11.77;4.90;;;;;;;9.17;46.90;102582.66;4947584;28;99060;-76
2024/01/29 09:11:31;;;;;;;9.93;4.53;;;;;;;9.26;46.62;102585.25;4946320;28;97660;-75
2024/01/29 09:13:58;;;;;;;11.70;4.40;;;;;;;9.40;45.99;102583.50;4948889;28;97791;-76
2024/01/29 09:16:25;;;;;;;13.90;4.70;;;;;;;9.54;45.67;102575.53;4949154;28;99666;-76
2024/01/29 09:18:51;;;;;;;11.57;4.60;;;;;;;9.73;44.98;102584.28;4943077;28;100952;-75
2024/01/29 09:21:17;;;;;;;20.30;5.43;;;;;;;9.78;44.46;102580.75;4935172;28;98879;-76
2024/01/29 09:23:44;;;;;;;13.35;4.90;;;;;;;9.86;44.27;102581.59;4933774;28;98787;-76
2024/01/29 09:26:10;;;;;;;15.93;5.18;;;;;;;9.93;44.14;102583.34;4945721;28;99492;-76
2024/01/29 09:28:37;;;;;;;17.23;5.25;;;;;;;9.97;44.22;102582.47;4946182;28;99172;-76
2024/01/29 09:31:05;;;;;;;17.08;5.38;;;;;;;10.05;44.10;102582.41;4949393;28;97328;-77
2024/01/29 09:33:31;;;;;;;14.13;5.18;;;;;;;10.15;43.47;102578.88;4950081;28;97417;-77
2024/01/29 09:35:58;;;;;;;15.45;4.80;;;;;;;10.24;42.81;102593.84;4945363;28;98954;-77
2024/01/29 09:38:24;;;;;;;11.38;5.07;;;;;;;10.23;42.79;102592.06;4948523;28;98744;-76
2024/01/29 09:40:50;;;;;;;12.68;5.10;;;;;;;10.35;42.62;102597.28;4948672;28;96873;-77
2024/01/29 09:43:21;;;;;;;11.15;4.93;;;;;;;10.41;42.18;102599.91;4949463;28;97799;-75
2024/01/29 09:45:50;;;;;;;10.35;4.20;;;;;;;10.55;42.05;102600.69;4941034;28;98737;-75
2024/01/29 09:48:21;;;;;;;11.85;4.53;;;;;;;10.55;41.70;102600.69;4948251;28;98884;-76
2024/01/29 09:50:49;;;;;;;10.38;4.93;;;;;;;10.61;40.99;102599.78;4947894;28;97062;-76
2024/01/29 09:53:20;;;;;;;11.30;4.43;;;;;;;10.74;40.88;102604.97;4946582;28;97231;-77
2024/01/29 09:55:47;;;;;;;11.55;4.15;;;;;;;10.96;39.47;102607.47;4947684;28;98921;-76
2024/01/29 09:58:13;;;;;;;16.25;4.28;;;;;;;10.94;40.05;102598.66;4946312;28;98816;-77
2024/01/29 10:00:40;;;;;;;9.13;4.50;;;;;;;11.32;39.75;102595.69;4947625;28;98674;-76
2024/01/29 10:03:08;;;;;;;10.90;4.25;;;;;;;11.14;38.84;102597.63;4944990;28;97282;-77
2024/01/29 10:05:37;;;;;;;10.93;4.25;;;;;;;11.23;38.54;102588.72;4944742;28;98959;-76
2024/01/29 10:08:04;;;;;;;18.98;4.35;;;;;;;11.29;38.97;102598.38;4948330;28;98887;-77
2024/01/29 10:10:31;;;;;;;14.27;4.50;;;;;;;11.48;38.29;102603.50;4949352;28;96774;-75
2024/01/29 10:13:04;;;;;;;10.60;3.80;;;;;;;11.48;37.26;102598.19;4948257;28;97961;-75
2024/01/29 10:15:31;;;;;;;11.75;3.88;;;;;;;11.32;37.96;102598.34;4944136;28;98973;-76
2024/01/29 10:17:58;;;;;;;8.30;3.55;;;;;;;11.41;37.82;102596.50;4947761;28;99127;-76
2024/01/29 10:20:25;;;;;;;10.63;3.83;;;;;;;11.60;37.24;102597.19;4946553;28;97594;-76
2024/01/29 10:22:59;;;;;;;7.72;3.72;;;;;;;11.71;36.99;102599.72;4945439;28;96976;-76
2024/01/29 10:25:26;;;;;;;13.20;4.00;;;;;;;11.90;36.42;102596.88;4944084;28;100837;-77
2024/01/29 10:27:52;;;;;;;7.95;3.40;;;;;;;12.13;36.95;102601.91;4946557;28;98793;-76
2024/01/29 10:30:18;;;;;;;7.93;3.90;;;;;;;12.04;36.72;102591.41;4951651;28;96870;-76
2024/01/29 10:32:45;;;;;;;8.98;4.05;;;;;;;12.13;36.30;102588.66;4946149;28;97228;-77
2024/01/29 10:35:12;;;;;;;11.18;3.88;;;;;;;12.18;35.93;102592.13;4946542;28;100791;-76
2024/01/29 10:37:40;;;;;;;9.40;3.65;;;;;;;12.26;35.87;102597.31;4946501;28;98888;-77
2024/01/29 10:40:11;;;;;;;14.07;3.63;;;;;;;12.29;35.95;102590.19;4942188;28;98552;-76
2024/01/29 10:42:40;;;;;;;8.15;3.60;;;;;;;12.09;35.86;102591.34;4945372;28;97298;-75
2024/01/29 10:45:10;;;;;;;7.93;3.72;;;;;;;12.17;36.01;102590.34;4947378;28;99222;-77
2024/01/29 10:47:44;;;;;;;6.20;3.42;;;;;;;12.28;35.98;102584.91;4947136;28;99473;-77
2024/01/29 10:50:16;;;;;;;10.70;3.50;;;;;;;12.40;35.86;102581.22;4948681;28;96859;-76
2024/01/29 10:52:44;;;;;;;7.95;3.80;;;;;;;12.31;35.80;102591.06;4949478;28;97226;-77
2024/01/29 10:55:13;;;;;;;15.27;3.90;;;;;;;12.14;36.28;102590.38;4949673;28;98956;-76
2024/01/29 10:57:42;;;;;;;8.57;3.80;;;;;;;12.35;36.08;102584.81;4948438;28;98261;-76
2024/01/29 11:00:10;;;;;;;7.97;3.22;;;;;;;12.30;36.08;102583.13;4946626;28;97226;-77
2024/01/29 11:02:37;;;;;;;11.48;3.47;;;;;;;12.26;36.25;102574.34;4950402;28;96985;-77
2024/01/29 11:05:04;;;;;;;8.45;3.50;;;;;;;12.38;35.73;102573.28;4946284;28;99714;-77
2024/01/29 11:07:32;;;;;;;13.07;3.45;;;;;;;12.62;35.99;102572.03;4947799;28;98830;-77
2024/01/29 11:10:07;;;;;;;9.63;3.10;;;;;;;12.45;35.66;102574.09;4945405;28;99273;-77
2024/01/29 11:12:37;;;;;;;24.92;5.30;;;;;;;12.36;35.63;102569.78;4948725;28;97108;-76
2024/01/29 11:15:05;;;;;;;30.48;5.45;;;;;;;12.51;36.16;102566.91;4944926;28;102343;-76
2024/01/29 11:17:31;;;;;;;22.38;4.40;;;;;;;12.59;36.32;102558.84;4946239;28;98854;-77
2024/01/29 11:20:00;;;;;;;23.38;4.13;;;;;;;12.78;35.75;102558.53;4947384;28;97044;-76
2024/01/29 11:22:35;;;;;;;11.55;3.53;;;;;;;12.90;35.11;102552.16;4947800;28;96774;-76